createdAt,value
2023-04-17T00:01:05.758Z,8.04
2023-04-17T00:03:38.842Z,8.03
2023-04-17T00:06:13.942Z,8.00
2023-04-17T00:08:46.897Z,8.01
2023-04-17T00:11:20.859Z,7.98
2023-04-17T00:13:55.141Z,7.98
2023-04-17T00:16:29.603Z,7.97
2023-04-17T00:19:02.717Z,7.93
2023-04-17T00:21:33.640Z,7.93
2023-04-17T00:24:06.563Z,7.98
2023-04-17T00:26:38.824Z,8.01
2023-04-17T00:29:11.104Z,7.98
2023-04-17T00:31:44.067Z,7.92
2023-04-17T00:34:17.686Z,7.90
2023-04-17T00:36:49.311Z,7.88
2023-04-17T00:39:21.977Z,7.83
2023-04-17T00:41:56.642Z,7.79
2023-04-17T00:44:30.891Z,7.75
2023-04-17T00:47:04.539Z,7.78
2023-04-17T00:49:37.612Z,7.83
2023-04-17T00:52:11.582Z,7.85
2023-04-17T00:54:47.370Z,7.78
2023-04-17T00:57:19.585Z,7.68
2023-04-17T00:59:53.605Z,7.61
2023-04-17T01:02:25.758Z,7.54
2023-04-17T01:05:00.541Z,7.53
2023-04-17T01:07:32.862Z,7.47
2023-04-17T01:10:07.292Z,7.45
2023-04-17T01:12:42.132Z,7.44
2023-04-17T01:15:15.680Z,7.42
2023-04-17T01:17:46.735Z,7.46
2023-04-17T01:20:17.992Z,7.52
2023-04-17T01:22:52.613Z,7.51
2023-04-17T01:25:24.469Z,7.47
2023-04-17T01:27:55.684Z,7.48
2023-04-17T01:30:27.434Z,7.47
2023-04-17T01:33:13.448Z,7.41
2023-04-17T01:36:05.803Z,7.40
2023-04-17T01:38:42.107Z,7.40
2023-04-17T01:41:14.890Z,7.43
2023-04-17T01:43:50.161Z,7.42
2023-04-17T01:46:23.602Z,7.46
2023-04-17T01:48:55.648Z,7.47
2023-04-17T01:51:28.593Z,7.48
2023-04-17T01:54:03.326Z,7.47
2023-04-17T01:56:36.631Z,7.42
2023-04-17T01:59:09.430Z,7.42
2023-04-17T02:01:46.121Z,7.37
2023-04-17T02:04:17.089Z,7.32
2023-04-17T02:06:48.938Z,7.29
2023-04-17T02:09:21.681Z,7.32
2023-04-17T02:11:55.819Z,7.33
2023-04-17T02:14:27.820Z,7.33
2023-04-17T02:17:04.847Z,7.39
2023-04-17T02:19:40.094Z,7.35
2023-04-17T02:22:18.887Z,7.29
2023-04-17T02:24:51.602Z,7.29
2023-04-17T02:27:26.849Z,7.25
2023-04-17T02:30:19.764Z,7.22
2023-04-17T02:32:52.779Z,7.24
2023-04-17T02:35:27.747Z,7.26
2023-04-17T02:38:02.431Z,7.25
2023-04-17T02:40:34.991Z,7.29
2023-04-17T02:43:06.456Z,7.30
2023-04-17T02:45:41.588Z,7.21
2023-04-17T02:48:24.003Z,7.17
2023-04-17T02:50:56.286Z,7.18
2023-04-17T02:53:29.388Z,7.12
2023-04-17T02:56:03.013Z,7.10
2023-04-17T02:58:36.954Z,7.14
2023-04-17T03:01:11.007Z,7.23
2023-04-17T03:03:48.089Z,7.30
2023-04-17T03:06:25.666Z,7.31
2023-04-17T03:08:57.156Z,7.24
2023-04-17T03:11:30.928Z,7.25
2023-04-17T03:14:02.585Z,7.28
2023-04-17T03:16:36.530Z,7.29
2023-04-17T03:19:09.225Z,7.25
2023-04-17T03:21:46.106Z,7.25
2023-04-17T03:24:18.941Z,7.32
2023-04-17T03:26:52.937Z,7.33
2023-04-17T03:29:24.899Z,7.32
2023-04-17T03:31:58.241Z,7.33
2023-04-17T03:34:35.007Z,7.32
2023-04-17T03:37:06.519Z,7.32
2023-04-17T03:39:38.077Z,7.31
2023-04-17T03:42:13.989Z,7.31
2023-04-17T03:44:48.096Z,7.34
2023-04-17T03:47:21.759Z,7.28
2023-04-17T03:49:55.820Z,7.29
2023-04-17T03:52:30.745Z,7.32
2023-04-17T03:55:04.508Z,7.33
2023-04-17T03:57:45.988Z,7.31
2023-04-17T04:00:22.262Z,7.31
2023-04-17T04:02:58.010Z,7.24
2023-04-17T04:05:48.852Z,7.18
2023-04-17T04:08:22.755Z,7.22
2023-04-17T04:10:56.410Z,7.24
2023-04-17T04:13:36.365Z,7.26
2023-04-17T04:16:10.478Z,7.28
2023-04-17T04:18:49.078Z,7.17
2023-04-17T04:21:23.139Z,7.15
2023-04-17T04:23:56.737Z,7.19
2023-04-17T04:26:28.994Z,7.15
2023-04-17T04:29:12.719Z,7.05
2023-04-17T04:32:10.425Z,7.03
2023-04-17T04:34:46.752Z,7.06
2023-04-17T04:37:23.006Z,7.05
2023-04-17T04:40:02.395Z,7.10
2023-04-17T04:42:35.602Z,7.10
2023-04-17T04:45:25.330Z,7.01
2023-04-17T04:48:00.736Z,7.03
2023-04-17T04:50:34.414Z,7.07
2023-04-17T04:53:07.246Z,7.11
2023-04-17T04:56:06.944Z,7.14
2023-04-17T04:58:50.414Z,7.18
2023-04-17T05:01:24.145Z,7.18
2023-04-17T05:03:58.048Z,7.19
2023-04-17T05:06:33.683Z,7.23
2023-04-17T05:09:08.704Z,7.27
2023-04-17T05:11:41.115Z,7.30
2023-04-17T05:14:15.624Z,7.33
2023-04-17T05:16:48.330Z,7.38
2023-04-17T05:19:24.989Z,7.44
2023-04-17T05:22:07.419Z,7.49
2023-04-17T05:24:44.018Z,7.55
2023-04-17T05:27:16.011Z,7.57
2023-04-17T05:29:49.854Z,7.60
2023-04-17T05:32:24.732Z,7.65
2023-04-17T05:35:00.136Z,7.68
2023-04-17T05:37:32.033Z,7.72
2023-04-17T05:40:07.307Z,7.77
2023-04-17T05:42:39.325Z,7.83
2023-04-17T05:45:14.960Z,7.89
2023-04-17T05:47:48.049Z,7.97
2023-04-17T05:50:20.944Z,8.02
2023-04-17T05:52:53.082Z,8.02
2023-04-17T05:55:27.337Z,7.96
2023-04-17T05:58:10.422Z,7.96
2023-04-17T06:00:49.496Z,8.02
2023-04-17T06:03:25.302Z,8.06
2023-04-17T06:06:04.935Z,8.08
2023-04-17T06:08:37.990Z,8.12
2023-04-17T06:11:12.339Z,8.16
2023-04-17T06:13:44.446Z,8.13
2023-04-17T06:16:18.396Z,8.16
2023-04-17T06:18:52.598Z,8.24
2023-04-17T06:21:23.778Z,8.29
2023-04-17T06:23:58.571Z,8.36
2023-04-17T06:26:32.661Z,8.41
2023-04-17T06:29:04.559Z,8.43
2023-04-17T06:31:39.034Z,8.43
2023-04-17T06:34:12.462Z,8.42
2023-04-17T06:36:48.708Z,8.44
2023-04-17T06:39:21.749Z,8.53
2023-04-17T06:41:56.869Z,8.63
2023-04-17T06:44:32.033Z,8.69
2023-04-17T06:47:05.403Z,8.75
2023-04-17T06:49:36.824Z,8.88
2023-04-17T06:52:08.936Z,8.92
2023-04-17T06:54:41.267Z,8.94
2023-04-17T06:57:14.589Z,8.97
2023-04-17T06:59:47.898Z,9.01
2023-04-17T07:02:21.313Z,9.10
2023-04-17T07:04:54.352Z,9.18
2023-04-17T07:07:26.693Z,9.28
2023-04-17T07:09:59.084Z,9.36
2023-04-17T07:12:31.521Z,9.41
2023-04-17T07:15:03.735Z,9.48
2023-04-17T07:17:36.529Z,9.55
2023-04-17T07:20:12.956Z,9.63
2023-04-17T07:22:45.885Z,9.73
2023-04-17T07:25:19.298Z,9.78
2023-04-17T07:27:51.852Z,9.76
2023-04-17T07:30:26.071Z,9.84
2023-04-17T07:32:58.032Z,9.96
2023-04-17T07:35:34.720Z,10.06
2023-04-17T07:38:08.253Z,10.15
2023-04-17T07:40:40.474Z,10.25
2023-04-17T07:43:16.937Z,10.33
2023-04-17T07:45:53.432Z,10.40
2023-04-17T07:48:26.624Z,10.39
2023-04-17T07:51:01.493Z,10.40
2023-04-17T07:53:36.181Z,10.39
2023-04-17T07:56:11.201Z,10.40
2023-04-17T07:58:46.639Z,10.38
2023-04-17T08:01:23.085Z,10.36
2023-04-17T08:03:55.774Z,10.35
2023-04-17T08:06:30.776Z,10.35
2023-04-17T08:09:04.675Z,10.41
2023-04-17T08:11:53.359Z,10.44
2023-04-17T08:14:31.512Z,10.42
2023-04-17T08:17:04.480Z,10.41
2023-04-17T08:19:38.848Z,10.49
2023-04-17T08:22:21.566Z,10.55
2023-04-17T08:24:56.997Z,10.54
2023-04-17T08:27:28.848Z,10.60
2023-04-17T08:29:59.627Z,10.67
2023-04-17T08:32:34.220Z,10.67
2023-04-17T08:35:15.413Z,10.72
2023-04-17T08:37:48.573Z,10.83
2023-04-17T08:40:24.661Z,10.88
2023-04-17T08:42:58.161Z,10.90
2023-04-17T08:45:29.142Z,10.95
2023-04-17T08:48:02.614Z,11.03
2023-04-17T08:50:35.969Z,11.11
2023-04-17T08:53:09.347Z,11.25
2023-04-17T08:55:40.635Z,11.33
2023-04-17T08:58:15.224Z,11.40
2023-04-17T09:00:48.081Z,11.51
2023-04-17T09:03:20.386Z,11.61
2023-04-17T09:06:00.495Z,11.66
2023-04-17T09:08:34.282Z,11.73
2023-04-17T09:11:07.336Z,11.80
2023-04-17T09:13:47.614Z,11.89
2023-04-17T09:16:19.660Z,11.81
2023-04-17T09:18:52.794Z,11.82
2023-04-17T09:21:30.059Z,11.91
2023-04-17T09:24:02.795Z,11.97
2023-04-17T09:26:35.787Z,12.03
2023-04-17T09:29:10.849Z,12.10
2023-04-17T09:31:46.299Z,12.19
2023-04-17T09:34:21.823Z,12.22
2023-04-17T09:37:03.240Z,12.28
2023-04-17T09:39:58.347Z,12.32
2023-04-17T09:42:30.960Z,12.28
2023-04-17T09:45:24.885Z,12.23
2023-04-17T09:47:57.498Z,12.28
2023-04-17T09:50:28.815Z,12.23
2023-04-17T09:53:02.531Z,12.20
2023-04-17T09:55:37.752Z,12.27
2023-04-17T09:58:11.256Z,12.31
2023-04-17T10:00:44.718Z,12.33
2023-04-17T10:03:19.060Z,12.31
2023-04-17T10:05:53.164Z,12.23
2023-04-17T10:08:27.795Z,12.31
2023-04-17T10:11:07.531Z,12.43
2023-04-17T10:13:58.413Z,12.44
2023-04-17T10:16:39.478Z,12.43
2023-04-17T10:19:32.745Z,12.53
2023-04-17T10:22:42.909Z,12.61
2023-04-17T10:25:23.023Z,12.51
2023-04-17T10:28:46.771Z,12.44
2023-04-17T10:31:24.227Z,12.49
2023-04-17T10:33:59.054Z,12.59
2023-04-17T10:36:53.182Z,12.60
2023-04-17T10:39:24.535Z,12.66
2023-04-17T10:42:07.325Z,12.78
2023-04-17T10:44:40.042Z,12.77
2023-04-17T10:47:14.508Z,12.69
2023-04-17T10:49:56.268Z,12.72
2023-04-17T10:52:43.663Z,12.76
2023-04-17T10:55:21.994Z,12.83
2023-04-17T10:58:01.756Z,12.84
2023-04-17T11:00:37.559Z,12.85
2023-04-17T11:03:16.231Z,12.89
2023-04-17T11:05:52.900Z,12.90
2023-04-17T11:08:34.517Z,12.77
2023-04-17T11:11:11.922Z,12.79
2023-04-17T11:13:50.936Z,12.88
2023-04-17T11:16:23.601Z,12.87
2023-04-17T11:19:00.072Z,12.94
2023-04-17T11:21:33.468Z,13.01
2023-04-17T11:24:12.929Z,12.97
2023-04-17T11:26:49.470Z,12.98
2023-04-17T11:29:22.253Z,12.97
2023-04-17T11:31:56.889Z,13.00
2023-04-17T11:34:28.658Z,12.99
2023-04-17T11:37:03.314Z,13.00
2023-04-17T11:39:37.875Z,12.88
2023-04-17T11:42:08.956Z,12.84
2023-04-17T11:44:45.568Z,12.94
2023-04-17T11:47:20.916Z,12.97
2023-04-17T11:49:55.346Z,12.97
2023-04-17T11:52:29.840Z,13.00
2023-04-17T11:55:01.982Z,13.01
2023-04-17T11:57:43.668Z,13.09
2023-04-17T12:00:27.275Z,13.03
2023-04-17T12:03:02.092Z,13.06
2023-04-17T12:05:37.178Z,13.06
2023-04-17T12:08:10.384Z,13.14
2023-04-17T12:10:48.270Z,13.17
2023-04-17T12:13:21.811Z,13.29
2023-04-17T12:15:54.029Z,13.33
2023-04-17T12:18:28.302Z,13.32
2023-04-17T12:20:58.911Z,13.25
2023-04-17T12:23:33.013Z,13.19
2023-04-17T12:26:06.018Z,13.17
2023-04-17T12:28:39.585Z,13.18
2023-04-17T12:31:12.474Z,13.26
2023-04-17T12:33:42.471Z,13.27
2023-04-17T12:36:18.258Z,13.27
2023-04-17T12:38:55.361Z,13.33
2023-04-17T12:41:34.521Z,13.27
2023-04-17T12:44:11.912Z,13.25
2023-04-17T12:46:45.582Z,13.18
2023-04-17T12:49:23.812Z,13.19
2023-04-17T12:52:01.635Z,13.25
2023-04-17T12:54:41.461Z,13.27
2023-04-17T12:57:15.893Z,13.34
2023-04-17T12:59:47.645Z,13.37
2023-04-17T13:02:21.969Z,13.39
2023-04-17T13:04:57.208Z,13.40
2023-04-17T13:07:32.111Z,13.38
2023-04-17T13:10:04.016Z,13.36
2023-04-17T13:12:37.068Z,13.41
2023-04-17T13:15:14.955Z,13.29
2023-04-17T13:17:48.902Z,13.11
2023-04-17T13:20:20.860Z,13.03
2023-04-17T13:22:54.931Z,13.10
2023-04-17T13:25:27.445Z,13.12
2023-04-17T13:27:59.888Z,13.12
2023-04-17T13:30:32.856Z,13.18
2023-04-17T13:33:05.038Z,13.13
2023-04-17T13:35:37.357Z,13.05
2023-04-17T13:38:13.371Z,13.01
2023-04-17T13:40:46.034Z,12.96
2023-04-17T13:43:19.322Z,12.88
2023-04-17T13:45:57.361Z,12.85
2023-04-17T13:48:31.092Z,12.80
2023-04-17T13:51:12.394Z,12.77
2023-04-17T13:53:46.540Z,12.75
2023-04-17T13:56:17.809Z,12.82
2023-04-17T13:58:53.814Z,12.94
2023-04-17T14:01:27.048Z,13.00
2023-04-17T14:04:00.447Z,12.98
2023-04-17T14:06:33.708Z,12.98
2023-04-17T14:09:08.199Z,13.03
2023-04-17T14:11:41.245Z,13.04
2023-04-17T14:14:15.605Z,12.98
2023-04-17T14:16:48.048Z,12.92
2023-04-17T14:19:20.350Z,12.89
2023-04-17T14:22:04.218Z,12.84
2023-04-17T14:24:37.025Z,12.87
2023-04-17T14:27:09.853Z,12.88
2023-04-17T14:29:45.061Z,12.86
2023-04-17T14:32:34.726Z,12.83
2023-04-17T14:35:25.991Z,12.80
2023-04-17T14:38:17.597Z,12.80
2023-04-17T14:40:49.821Z,12.82
2023-04-17T14:43:21.685Z,12.79
2023-04-17T14:45:53.687Z,12.69
2023-04-17T14:48:26.771Z,12.65
2023-04-17T14:50:59.476Z,12.70
2023-04-17T14:53:32.591Z,12.74
2023-04-17T14:56:05.994Z,12.73
2023-04-17T14:58:39.371Z,12.74
2023-04-17T15:01:12.267Z,12.71
2023-04-17T15:03:48.462Z,12.59
2023-04-17T15:06:21.658Z,12.56
2023-04-17T15:08:53.262Z,12.54
2023-04-17T15:11:25.053Z,12.55
2023-04-17T15:13:56.777Z,12.61
2023-04-17T15:16:28.802Z,12.62
2023-04-17T15:19:01.521Z,12.60
2023-04-17T15:21:33.687Z,12.58
2023-04-17T15:24:06.094Z,12.55
2023-04-17T15:26:45.016Z,12.53
2023-04-17T15:29:17.262Z,12.56
2023-04-17T15:31:48.678Z,12.51
2023-04-17T15:34:22.907Z,12.48
2023-04-17T15:36:55.515Z,12.43
2023-04-17T15:39:27.432Z,12.38
2023-04-17T15:41:58.614Z,12.33
2023-04-17T15:44:31.034Z,12.29
2023-04-17T15:47:03.209Z,12.21
2023-04-17T15:49:35.636Z,12.22
2023-04-17T15:52:09.610Z,12.24
2023-04-17T15:54:42.313Z,12.19
2023-04-17T15:57:13.501Z,12.12
2023-04-17T15:59:45.869Z,12.11
2023-04-17T16:02:17.140Z,12.09
2023-04-17T16:04:48.970Z,12.04
2023-04-17T16:07:22.373Z,11.95
2023-04-17T16:09:55.729Z,11.84
2023-04-17T16:12:30.329Z,11.81
2023-04-17T16:15:02.796Z,11.75
2023-04-17T16:17:34.816Z,11.66
2023-04-17T16:20:08.452Z,11.56
2023-04-17T16:22:41.440Z,11.50
2023-04-17T16:25:16.955Z,11.46
2023-04-17T16:27:48.771Z,11.42
2023-04-17T16:30:22.129Z,11.36
2023-04-17T16:32:56.253Z,11.25
2023-04-17T16:35:30.185Z,11.26
2023-04-17T16:38:05.346Z,11.22
2023-04-17T16:40:38.645Z,11.13
2023-04-17T16:43:10.940Z,11.10
2023-04-17T16:45:43.265Z,11.04
2023-04-17T16:48:15.634Z,10.95
2023-04-17T16:50:48.699Z,10.91
2023-04-17T16:53:21.529Z,10.86
2023-04-17T16:55:54.449Z,10.84
2023-04-17T16:58:28.288Z,10.82
2023-04-17T17:00:59.030Z,10.76
2023-04-17T17:03:31.924Z,10.72
2023-04-17T17:06:04.597Z,10.64
2023-04-17T17:08:38.119Z,10.52
2023-04-17T17:11:11.451Z,10.44
2023-04-17T17:13:44.582Z,10.40
2023-04-17T17:16:19.204Z,10.33
2023-04-17T17:18:54.385Z,10.26
2023-04-17T17:21:28.482Z,10.24
2023-04-17T17:24:01.508Z,10.23
2023-04-17T17:26:34.829Z,10.23
2023-04-17T17:29:07.440Z,10.18
2023-04-17T17:31:39.362Z,10.16
2023-04-17T17:37:04.957Z,10.01
2023-04-17T17:39:37.891Z,9.98
2023-04-17T17:42:09.907Z,9.94
2023-04-17T17:44:43.905Z,9.87
2023-04-17T17:47:17.280Z,9.79
2023-04-17T17:49:49.493Z,9.72
2023-04-17T17:52:20.770Z,9.68
2023-04-17T17:54:52.933Z,9.69
2023-04-17T17:57:35.692Z,9.64
2023-04-17T18:00:22.056Z,9.57
2023-04-17T18:02:55.406Z,9.52
2023-04-17T18:05:27.674Z,9.49
2023-04-17T18:08:02.204Z,9.48
2023-04-17T18:10:33.723Z,9.49
2023-04-17T18:13:06.712Z,9.43
2023-04-17T18:15:44.930Z,9.37
2023-04-17T18:18:17.598Z,9.30
2023-04-17T18:20:49.520Z,9.28
2023-04-17T18:23:23.261Z,9.25
2023-04-17T18:26:02.735Z,9.23
2023-04-17T18:28:35.903Z,9.21
2023-04-17T18:31:09.013Z,9.21
2023-04-17T18:33:41.447Z,9.13
2023-04-17T18:36:14.558Z,9.08
2023-04-17T18:38:49.133Z,9.07
2023-04-17T18:41:23.388Z,9.07
2023-04-17T18:43:55.479Z,9.05
2023-04-17T18:46:30.633Z,9.00
2023-04-17T18:49:06.139Z,8.94
2023-04-17T18:51:41.527Z,8.88
2023-04-17T18:54:15.353Z,8.84
2023-04-17T18:56:49.159Z,8.85
2023-04-17T18:59:25.605Z,8.86
2023-04-17T19:01:57.419Z,8.86
2023-04-17T19:04:31.659Z,8.85
2023-04-17T19:07:05.665Z,8.83
2023-04-17T19:09:39.613Z,8.82
2023-04-17T19:12:13.461Z,8.81
2023-04-17T19:14:45.270Z,8.82
2023-04-17T19:17:18.089Z,8.80
2023-04-17T19:19:49.643Z,8.82
2023-04-17T19:22:21.277Z,8.85
2023-04-17T19:24:53.307Z,8.85
2023-04-17T19:27:27.349Z,8.86
2023-04-17T19:30:00.417Z,8.84
2023-04-17T19:32:33.580Z,8.81
2023-04-17T19:35:05.656Z,8.79
2023-04-17T19:37:37.949Z,8.73
2023-04-17T19:40:24.208Z,8.71
2023-04-17T19:43:01.312Z,8.71
2023-04-17T19:45:33.846Z,8.70
2023-04-17T19:48:06.949Z,8.67
2023-04-17T19:50:38.297Z,8.67
2023-04-17T19:53:12.078Z,8.70
2023-04-17T19:55:43.003Z,8.70
2023-04-17T19:58:16.266Z,8.70
2023-04-17T20:00:48.962Z,8.71
2023-04-17T20:03:20.276Z,8.72
2023-04-17T20:05:53.060Z,8.69
2023-04-17T20:08:25.990Z,8.66
2023-04-17T20:10:58.151Z,8.67
2023-04-17T20:13:29.568Z,8.67
2023-04-17T20:16:02.262Z,8.67
2023-04-17T20:18:34.406Z,8.66
2023-04-17T20:21:06.700Z,8.65
2023-04-17T20:23:40.174Z,8.64
2023-04-17T20:26:13.722Z,8.64
2023-04-17T20:28:45.421Z,8.66
2023-04-17T20:31:19.011Z,8.67
2023-04-17T20:33:50.795Z,8.69
2023-04-17T20:36:24.196Z,8.71
2023-04-17T20:38:57.502Z,8.70
2023-04-17T20:41:32.180Z,8.68
2023-04-17T20:44:04.861Z,8.65
2023-04-17T20:46:39.495Z,8.63
2023-04-17T20:49:12.387Z,8.62
2023-04-17T20:51:45.169Z,8.60
2023-04-17T20:54:17.329Z,8.63
2023-04-17T20:56:49.934Z,8.61
2023-04-17T20:59:22.734Z,8.60
2023-04-17T21:01:54.756Z,8.58
2023-04-17T21:04:26.166Z,8.57
2023-04-17T21:06:58.486Z,8.57
2023-04-17T21:09:29.956Z,8.56
2023-04-17T21:12:01.673Z,8.56
2023-04-17T21:14:35.567Z,8.56
2023-04-17T21:17:07.267Z,8.60
2023-04-17T21:19:38.931Z,8.64
2023-04-17T21:22:18.070Z,8.61
2023-04-17T21:24:51.459Z,8.58
2023-04-17T21:27:22.589Z,8.53
2023-04-17T21:29:54.820Z,8.50
2023-04-17T21:32:27.503Z,8.49
2023-04-17T21:35:11.371Z,8.45
2023-04-17T21:37:45.928Z,8.42
2023-04-17T21:40:18.163Z,8.39
2023-04-17T21:42:50.881Z,8.36
2023-04-17T21:45:21.815Z,8.33
2023-04-17T21:47:53.450Z,8.31
2023-04-17T21:50:27.540Z,8.31
2023-04-17T21:53:01.717Z,8.32
2023-04-17T21:55:34.125Z,8.33
2023-04-17T21:58:05.931Z,8.38
2023-04-17T22:00:38.454Z,8.45
2023-04-17T22:03:11.108Z,8.51
2023-04-17T22:05:44.336Z,8.54
2023-04-17T22:08:17.183Z,8.55
2023-04-17T22:10:49.565Z,8.58
2023-04-17T22:13:23.811Z,8.56
2023-04-17T22:16:01.273Z,8.58
2023-04-17T22:18:33.074Z,8.53
2023-04-17T22:21:06.182Z,8.51
2023-04-17T22:23:39.747Z,8.56
2023-04-17T22:26:12.913Z,8.58
2023-04-17T22:28:44.997Z,8.56
2023-04-17T22:31:17.306Z,8.55
2023-04-17T22:33:50.085Z,8.58
2023-04-17T22:36:21.733Z,8.61
2023-04-17T22:38:54.537Z,8.61
2023-04-17T22:41:27.442Z,8.66
2023-04-17T22:44:00.026Z,8.67
2023-04-17T22:46:31.602Z,8.65
2023-04-17T22:49:06.579Z,8.62
2023-04-17T22:51:38.709Z,8.67
2023-04-17T22:54:22.098Z,8.71
2023-04-17T22:56:54.652Z,8.71
2023-04-17T22:59:28.678Z,8.69
2023-04-17T23:02:00.150Z,8.66
2023-04-17T23:04:33.166Z,8.66
2023-04-17T23:07:06.659Z,8.65
2023-04-17T23:09:39.141Z,8.60
2023-04-17T23:12:11.439Z,8.62
2023-04-17T23:14:46.059Z,8.65
2023-04-17T23:17:17.902Z,8.62
2023-04-17T23:19:50.644Z,8.60
2023-04-17T23:22:22.560Z,8.60
2023-04-17T23:24:55.125Z,8.62
2023-04-17T23:27:27.925Z,8.64
2023-04-17T23:30:01.779Z,8.64
2023-04-17T23:32:34.672Z,8.66
2023-04-17T23:35:15.006Z,8.61
2023-04-17T23:37:48.286Z,8.63
2023-04-17T23:40:23.800Z,8.63
2023-04-17T23:42:55.266Z,8.61
2023-04-17T23:45:26.183Z,8.62
2023-04-17T23:48:00.902Z,8.64
2023-04-17T23:50:32.846Z,8.61
2023-04-17T23:53:09.751Z,8.57
2023-04-17T23:55:46.486Z,8.56
2023-04-17T23:58:18.842Z,8.55
